sensor_id;sensor_type;location;lat;lon;timestamp;P1;durP1;ratioP1;P2;durP2;ratioP2
33148;SDS011;19506;51.040;3.856;2023-05-07T00:01:35;7.57;;;2.53;;
33148;SDS011;19506;51.040;3.856;2023-05-07T00:04:00;5.00;;;2.70;;
33148;SDS011;19506;51.040;3.856;2023-05-07T00:06:27;7.15;;;2.50;;
33148;SDS011;19506;51.040;3.856;2023-05-07T00:08:53;8.23;;;3.20;;
33148;SDS011;19506;51.040;3.856;2023-05-07T00:11:19;6.45;;;3.47;;
33148;SDS011;19506;51.040;3.856;2023-05-07T00:13:46;4.95;;;2.72;;
33148;SDS011;19506;51.040;3.856;2023-05-07T00:16:12;5.20;;;2.67;;
33148;SDS011;19506;51.040;3.856;2023-05-07T00:18:38;6.63;;;3.03;;
33148;SDS011;19506;51.040;3.856;2023-05-07T00:21:03;5.50;;;2.50;;
33148;SDS011;19506;51.040;3.856;2023-05-07T00:23:29;4.70;;;3.08;;
33148;SDS011;19506;51.040;3.856;2023-05-07T00:25:55;5.60;;;2.65;;
33148;SDS011;19506;51.040;3.856;2023-05-07T00:28:21;4.28;;;2.50;;
33148;SDS011;19506;51.040;3.856;2023-05-07T00:30:46;4.18;;;2.67;;
33148;SDS011;19506;51.040;3.856;2023-05-07T00:33:12;6.45;;;2.88;;
33148;SDS011;19506;51.040;3.856;2023-05-07T00:35:38;10.10;;;3.13;;
33148;SDS011;19506;51.040;3.856;2023-05-07T00:38:03;3.95;;;2.47;;
33148;SDS011;19506;51.040;3.856;2023-05-07T00:40:29;5.30;;;3.33;;
33148;SDS011;19506;51.040;3.856;2023-05-07T00:42:55;4.28;;;2.38;;
33148;SDS011;19506;51.040;3.856;2023-05-07T00:45:23;4.80;;;2.30;;
33148;SDS011;19506;51.040;3.856;2023-05-07T00:47:53;4.18;;;2.22;;
33148;SDS011;19506;51.040;3.856;2023-05-07T00:50:20;4.80;;;2.78;;
33148;SDS011;19506;51.040;3.856;2023-05-07T00:52:46;4.97;;;2.63;;
33148;SDS011;19506;51.040;3.856;2023-05-07T00:55:12;5.47;;;2.08;;
33148;SDS011;19506;51.040;3.856;2023-05-07T00:57:39;5.68;;;2.90;;
33148;SDS011;19506;51.040;3.856;2023-05-07T01:00:06;4.45;;;3.13;;
33148;SDS011;19506;51.040;3.856;2023-05-07T01:02:34;4.40;;;2.47;;
33148;SDS011;19506;51.040;3.856;2023-05-07T01:05:01;3.85;;;2.55;;
33148;SDS011;19506;51.040;3.856;2023-05-07T01:07:28;3.75;;;2.10;;
33148;SDS011;19506;51.040;3.856;2023-05-07T01:09:55;4.45;;;2.80;;
33148;SDS011;19506;51.040;3.856;2023-05-07T01:12:21;4.95;;;2.70;;
33148;SDS011;19506;51.040;3.856;2023-05-07T01:14:47;4.32;;;2.22;;
33148;SDS011;19506;51.040;3.856;2023-05-07T01:17:14;5.28;;;2.58;;
33148;SDS011;19506;51.040;3.856;2023-05-07T01:19:41;3.92;;;2.28;;
33148;SDS011;19506;51.040;3.856;2023-05-07T01:22:07;4.75;;;2.88;;
33148;SDS011;19506;51.040;3.856;2023-05-07T01:24:36;4.45;;;2.00;;
33148;SDS011;19506;51.040;3.856;2023-05-07T01:27:03;3.60;;;2.17;;
33148;SDS011;19506;51.040;3.856;2023-05-07T01:29:29;3.60;;;2.45;;
33148;SDS011;19506;51.040;3.856;2023-05-07T01:31:56;2.88;;;2.10;;
33148;SDS011;19506;51.040;3.856;2023-05-07T01:34:24;3.55;;;2.55;;
33148;SDS011;19506;51.040;3.856;2023-05-07T01:36:52;4.10;;;2.35;;
33148;SDS011;19506;51.040;3.856;2023-05-07T01:39:21;3.88;;;2.13;;
33148;SDS011;19506;51.040;3.856;2023-05-07T01:41:49;3.95;;;2.22;;
33148;SDS011;19506;51.040;3.856;2023-05-07T01:44:15;3.50;;;2.35;;
33148;SDS011;19506;51.040;3.856;2023-05-07T01:46:43;4.20;;;2.20;;
33148;SDS011;19506;51.040;3.856;2023-05-07T01:49:09;4.85;;;2.05;;
33148;SDS011;19506;51.040;3.856;2023-05-07T01:51:35;4.13;;;2.30;;
33148;SDS011;19506;51.040;3.856;2023-05-07T01:54:01;5.18;;;2.58;;
33148;SDS011;19506;51.040;3.856;2023-05-07T01:56:26;3.47;;;2.58;;
33148;SDS011;19506;51.040;3.856;2023-05-07T01:58:52;6.75;;;2.83;;
33148;SDS011;19506;51.040;3.856;2023-05-07T02:01:18;3.55;;;2.67;;
33148;SDS011;19506;51.040;3.856;2023-05-07T02:03:43;4.95;;;2.88;;
33148;SDS011;19506;51.040;3.856;2023-05-07T02:06:09;3.17;;;2.38;;
33148;SDS011;19506;51.040;3.856;2023-05-07T02:08:35;3.00;;;2.13;;
33148;SDS011;19506;51.040;3.856;2023-05-07T02:11:01;3.40;;;2.20;;
33148;SDS011;19506;51.040;3.856;2023-05-07T02:13:32;2.50;;;2.20;;
33148;SDS011;19506;51.040;3.856;2023-05-07T02:15:59;3.30;;;2.10;;
33148;SDS011;19506;51.040;3.856;2023-05-07T02:18:25;5.03;;;2.30;;
33148;SDS011;19506;51.040;3.856;2023-05-07T02:20:51;6.95;;;2.25;;
33148;SDS011;19506;51.040;3.856;2023-05-07T02:23:16;5.00;;;2.75;;
33148;SDS011;19506;51.040;3.856;2023-05-07T02:25:42;4.30;;;2.10;;
33148;SDS011;19506;51.040;3.856;2023-05-07T02:28:08;5.07;;;1.90;;
33148;SDS011;19506;51.040;3.856;2023-05-07T02:30:33;3.25;;;2.08;;
33148;SDS011;19506;51.040;3.856;2023-05-07T02:32:59;3.20;;;2.08;;
33148;SDS011;19506;51.040;3.856;2023-05-07T02:35:25;2.63;;;1.80;;
33148;SDS011;19506;51.040;3.856;2023-05-07T02:37:51;3.10;;;2.28;;
33148;SDS011;19506;51.040;3.856;2023-05-07T02:40:16;2.90;;;1.90;;
33148;SDS011;19506;51.040;3.856;2023-05-07T02:42:42;2.92;;;2.17;;
33148;SDS011;19506;51.040;3.856;2023-05-07T02:45:08;4.82;;;2.22;;
33148;SDS011;19506;51.040;3.856;2023-05-07T02:47:34;3.55;;;2.00;;
33148;SDS011;19506;51.040;3.856;2023-05-07T02:50:00;2.55;;;2.10;;
33148;SDS011;19506;51.040;3.856;2023-05-07T02:52:25;3.63;;;2.28;;
33148;SDS011;19506;51.040;3.856;2023-05-07T02:54:51;4.20;;;2.15;;
33148;SDS011;19506;51.040;3.856;2023-05-07T02:57:17;3.00;;;1.92;;
33148;SDS011;19506;51.040;3.856;2023-05-07T02:59:42;4.88;;;2.20;;
33148;SDS011;19506;51.040;3.856;2023-05-07T03:02:08;3.45;;;2.30;;
33148;SDS011;19506;51.040;3.856;2023-05-07T03:04:35;2.80;;;2.42;;
33148;SDS011;19506;51.040;3.856;2023-05-07T03:07:01;3.70;;;2.17;;
33148;SDS011;19506;51.040;3.856;2023-05-07T03:09:27;4.80;;;2.55;;
33148;SDS011;19506;51.040;3.856;2023-05-07T03:11:52;2.92;;;1.85;;
33148;SDS011;19506;51.040;3.856;2023-05-07T03:14:18;4.82;;;2.38;;
33148;SDS011;19506;51.040;3.856;2023-05-07T03:16:44;3.05;;;2.08;;
33148;SDS011;19506;51.040;3.856;2023-05-07T03:19:09;2.75;;;2.10;;
33148;SDS011;19506;51.040;3.856;2023-05-07T03:21:35;4.20;;;2.17;;
33148;SDS011;19506;51.040;3.856;2023-05-07T03:24:00;3.90;;;2.13;;
33148;SDS011;19506;51.040;3.856;2023-05-07T03:26:26;3.35;;;1.98;;
33148;SDS011;19506;51.040;3.856;2023-05-07T03:28:52;2.63;;;1.80;;
33148;SDS011;19506;51.040;3.856;2023-05-07T03:31:17;6.05;;;2.38;;
33148;SDS011;19506;51.040;3.856;2023-05-07T03:33:50;5.15;;;2.03;;
33148;SDS011;19506;51.040;3.856;2023-05-07T03:36:16;4.15;;;2.63;;
33148;SDS011;19506;51.040;3.856;2023-05-07T03:38:42;3.53;;;2.15;;
33148;SDS011;19506;51.040;3.856;2023-05-07T03:41:08;2.22;;;1.67;;
33148;SDS011;19506;51.040;3.856;2023-05-07T03:43:34;3.03;;;2.10;;
33148;SDS011;19506;51.040;3.856;2023-05-07T03:45:59;5.55;;;1.98;;
33148;SDS011;19506;51.040;3.856;2023-05-07T03:48:25;5.60;;;1.95;;
33148;SDS011;19506;51.040;3.856;2023-05-07T03:50:51;3.17;;;2.05;;
33148;SDS011;19506;51.040;3.856;2023-05-07T03:53:17;3.08;;;2.05;;
33148;SDS011;19506;51.040;3.856;2023-05-07T03:55:42;3.72;;;2.05;;
33148;SDS011;19506;51.040;3.856;2023-05-07T03:58:08;4.07;;;2.17;;
33148;SDS011;19506;51.040;3.856;2023-05-07T04:00:33;2.47;;;1.88;;
33148;SDS011;19506;51.040;3.856;2023-05-07T04:03:03;2.90;;;1.88;;
33148;SDS011;19506;51.040;3.856;2023-05-07T04:05:29;3.10;;;1.98;;
33148;SDS011;19506;51.040;3.856;2023-05-07T04:07:57;3.20;;;1.95;;
33148;SDS011;19506;51.040;3.856;2023-05-07T04:10:23;4.72;;;1.70;;
33148;SDS011;19506;51.040;3.856;2023-05-07T04:12:49;2.92;;;2.00;;
33148;SDS011;19506;51.040;3.856;2023-05-07T04:15:14;2.63;;;1.80;;
33148;SDS011;19506;51.040;3.856;2023-05-07T04:17:40;3.88;;;2.03;;
33148;SDS011;19506;51.040;3.856;2023-05-07T04:20:08;1.83;;;1.67;;
33148;SDS011;19506;51.040;3.856;2023-05-07T04:22:35;2.40;;;1.90;;
33148;SDS011;19506;51.040;3.856;2023-05-07T04:25:02;2.63;;;2.03;;
33148;SDS011;19506;51.040;3.856;2023-05-07T04:27:28;2.42;;;2.00;;
33148;SDS011;19506;51.040;3.856;2023-05-07T04:29:54;4.57;;;2.25;;
33148;SDS011;19506;51.040;3.856;2023-05-07T04:32:20;2.72;;;1.80;;
33148;SDS011;19506;51.040;3.856;2023-05-07T04:34:47;2.45;;;1.95;;
33148;SDS011;19506;51.040;3.856;2023-05-07T04:37:12;2.60;;;1.70;;
33148;SDS011;19506;51.040;3.856;2023-05-07T04:39:38;2.15;;;1.70;;
33148;SDS011;19506;51.040;3.856;2023-05-07T04:42:04;3.20;;;1.80;;
33148;SDS011;19506;51.040;3.856;2023-05-07T04:44:33;2.47;;;1.67;;
33148;SDS011;19506;51.040;3.856;2023-05-07T04:47:00;2.30;;;1.63;;
33148;SDS011;19506;51.040;3.856;2023-05-07T04:49:26;1.98;;;1.77;;
33148;SDS011;19506;51.040;3.856;2023-05-07T04:51:52;3.17;;;1.58;;
33148;SDS011;19506;51.040;3.856;2023-05-07T04:54:18;6.22;;;2.05;;
33148;SDS011;19506;51.040;3.856;2023-05-07T04:56:44;11.15;;;1.95;;
33148;SDS011;19506;51.040;3.856;2023-05-07T04:59:10;4.25;;;2.00;;
33148;SDS011;19506;51.040;3.856;2023-05-07T05:01:36;4.47;;;2.25;;
33148;SDS011;19506;51.040;3.856;2023-05-07T05:04:02;3.17;;;2.28;;
33148;SDS011;19506;51.040;3.856;2023-05-07T05:06:28;5.53;;;2.60;;
33148;SDS011;19506;51.040;3.856;2023-05-07T05:08:54;3.17;;;2.15;;
33148;SDS011;19506;51.040;3.856;2023-05-07T05:11:20;5.63;;;2.22;;
33148;SDS011;19506;51.040;3.856;2023-05-07T05:13:46;5.25;;;2.15;;
33148;SDS011;19506;51.040;3.856;2023-05-07T05:16:15;3.75;;;2.25;;
33148;SDS011;19506;51.040;3.856;2023-05-07T05:18:41;5.18;;;1.95;;
33148;SDS011;19506;51.040;3.856;2023-05-07T05:21:06;4.22;;;2.25;;
33148;SDS011;19506;51.040;3.856;2023-05-07T05:23:33;4.57;;;1.90;;
33148;SDS011;19506;51.040;3.856;2023-05-07T05:25:59;7.25;;;2.45;;
33148;SDS011;19506;51.040;3.856;2023-05-07T05:28:25;5.53;;;2.45;;
33148;SDS011;19506;51.040;3.856;2023-05-07T05:30:52;3.97;;;2.92;;
33148;SDS011;19506;51.040;3.856;2023-05-07T05:33:18;5.13;;;2.53;;
33148;SDS011;19506;51.040;3.856;2023-05-07T05:35:44;3.63;;;2.03;;
33148;SDS011;19506;51.040;3.856;2023-05-07T05:38:10;3.95;;;2.38;;
33148;SDS011;19506;51.040;3.856;2023-05-07T05:40:36;4.70;;;2.28;;
33148;SDS011;19506;51.040;3.856;2023-05-07T05:43:02;4.68;;;2.30;;
33148;SDS011;19506;51.040;3.856;2023-05-07T05:45:28;6.72;;;2.30;;
33148;SDS011;19506;51.040;3.856;2023-05-07T05:47:55;5.13;;;2.75;;
33148;SDS011;19506;51.040;3.856;2023-05-07T05:50:21;3.70;;;2.22;;
33148;SDS011;19506;51.040;3.856;2023-05-07T05:52:47;5.60;;;2.78;;
33148;SDS011;19506;51.040;3.856;2023-05-07T05:55:13;6.07;;;2.95;;
33148;SDS011;19506;51.040;3.856;2023-05-07T05:57:39;13.05;;;3.40;;
33148;SDS011;19506;51.040;3.856;2023-05-07T06:00:06;9.07;;;2.53;;
33148;SDS011;19506;51.040;3.856;2023-05-07T06:02:32;7.43;;;2.30;;
33148;SDS011;19506;51.040;3.856;2023-05-07T06:04:58;5.10;;;2.28;;
33148;SDS011;19506;51.040;3.856;2023-05-07T06:07:25;4.35;;;2.45;;
33148;SDS011;19506;51.040;3.856;2023-05-07T06:09:50;4.68;;;2.90;;
33148;SDS011;19506;51.040;3.856;2023-05-07T06:12:16;5.30;;;2.20;;
33148;SDS011;19506;51.040;3.856;2023-05-07T06:14:44;7.10;;;2.47;;
33148;SDS011;19506;51.040;3.856;2023-05-07T06:17:10;6.15;;;2.40;;
33148;SDS011;19506;51.040;3.856;2023-05-07T06:19:36;4.85;;;2.60;;
33148;SDS011;19506;51.040;3.856;2023-05-07T06:22:02;3.38;;;2.10;;
33148;SDS011;19506;51.040;3.856;2023-05-07T06:24:28;6.25;;;2.60;;
33148;SDS011;19506;51.040;3.856;2023-05-07T06:26:54;7.68;;;2.13;;
33148;SDS011;19506;51.040;3.856;2023-05-07T06:29:23;7.38;;;2.78;;
33148;SDS011;19506;51.040;3.856;2023-05-07T06:31:51;5.38;;;2.20;;
33148;SDS011;19506;51.040;3.856;2023-05-07T06:34:17;3.88;;;2.20;;
33148;SDS011;19506;51.040;3.856;2023-05-07T06:36:43;6.68;;;2.10;;
33148;SDS011;19506;51.040;3.856;2023-05-07T06:39:09;3.30;;;2.03;;
33148;SDS011;19506;51.040;3.856;2023-05-07T06:41:35;5.45;;;2.30;;
33148;SDS011;19506;51.040;3.856;2023-05-07T06:44:01;17.70;;;3.60;;
33148;SDS011;19506;51.040;3.856;2023-05-07T06:46:28;3.45;;;2.00;;
33148;SDS011;19506;51.040;3.856;2023-05-07T06:48:54;4.13;;;2.53;;
33148;SDS011;19506;51.040;3.856;2023-05-07T06:51:21;6.15;;;2.60;;
33148;SDS011;19506;51.040;3.856;2023-05-07T06:53:47;3.90;;;2.30;;
33148;SDS011;19506;51.040;3.856;2023-05-07T06:56:13;4.07;;;1.95;;
33148;SDS011;19506;51.040;3.856;2023-05-07T06:58:40;4.53;;;2.42;;
33148;SDS011;19506;51.040;3.856;2023-05-07T07:01:06;5.20;;;2.33;;
33148;SDS011;19506;51.040;3.856;2023-05-07T07:03:32;9.15;;;2.72;;
33148;SDS011;19506;51.040;3.856;2023-05-07T07:05:57;6.80;;;2.63;;
33148;SDS011;19506;51.040;3.856;2023-05-07T07:08:24;6.85;;;2.13;;
33148;SDS011;19506;51.040;3.856;2023-05-07T07:10:49;5.88;;;2.40;;
33148;SDS011;19506;51.040;3.856;2023-05-07T07:13:15;7.30;;;2.17;;
33148;SDS011;19506;51.040;3.856;2023-05-07T07:15:42;6.57;;;3.00;;
33148;SDS011;19506;51.040;3.856;2023-05-07T07:18:08;4.97;;;2.22;;
33148;SDS011;19506;51.040;3.856;2023-05-07T07:20:34;6.72;;;2.33;;
33148;SDS011;19506;51.040;3.856;2023-05-07T07:22:59;8.73;;;3.70;;
33148;SDS011;19506;51.040;3.856;2023-05-07T07:25:25;9.82;;;2.30;;
33148;SDS011;19506;51.040;3.856;2023-05-07T07:27:51;8.32;;;2.65;;
33148;SDS011;19506;51.040;3.856;2023-05-07T07:30:16;14.68;;;2.42;;
33148;SDS011;19506;51.040;3.856;2023-05-07T07:32:42;13.00;;;2.78;;
33148;SDS011;19506;51.040;3.856;2023-05-07T07:35:08;6.00;;;2.58;;
33148;SDS011;19506;51.040;3.856;2023-05-07T07:37:34;12.32;;;2.55;;
33148;SDS011;19506;51.040;3.856;2023-05-07T07:40:00;9.50;;;2.42;;
33148;SDS011;19506;51.040;3.856;2023-05-07T07:42:26;7.32;;;2.22;;
33148;SDS011;19506;51.040;3.856;2023-05-07T07:44:54;18.55;;;2.72;;
33148;SDS011;19506;51.040;3.856;2023-05-07T07:47:20;12.07;;;2.80;;
33148;SDS011;19506;51.040;3.856;2023-05-07T07:49:46;13.10;;;2.70;;
33148;SDS011;19506;51.040;3.856;2023-05-07T07:52:12;13.65;;;3.42;;
33148;SDS011;19506;51.040;3.856;2023-05-07T07:54:38;19.67;;;2.92;;
33148;SDS011;19506;51.040;3.856;2023-05-07T07:57:04;9.60;;;3.47;;
33148;SDS011;19506;51.040;3.856;2023-05-07T07:59:30;14.02;;;3.50;;
33148;SDS011;19506;51.040;3.856;2023-05-07T08:01:56;9.40;;;2.80;;
33148;SDS011;19506;51.040;3.856;2023-05-07T08:04:22;9.25;;;3.05;;
33148;SDS011;19506;51.040;3.856;2023-05-07T08:06:48;11.65;;;3.42;;
33148;SDS011;19506;51.040;3.856;2023-05-07T08:09:14;11.27;;;2.83;;
33148;SDS011;19506;51.040;3.856;2023-05-07T08:11:41;20.48;;;3.65;;
33148;SDS011;19506;51.040;3.856;2023-05-07T08:14:07;9.05;;;2.95;;
33148;SDS011;19506;51.040;3.856;2023-05-07T08:16:32;15.15;;;4.03;;
33148;SDS011;19506;51.040;3.856;2023-05-07T08:19:00;8.05;;;3.67;;
33148;SDS011;19506;51.040;3.856;2023-05-07T08:21:26;9.50;;;3.38;;
33148;SDS011;19506;51.040;3.856;2023-05-07T08:23:52;13.93;;;3.72;;
33148;SDS011;19506;51.040;3.856;2023-05-07T08:26:18;17.38;;;3.88;;
33148;SDS011;19506;51.040;3.856;2023-05-07T08:28:44;10.60;;;4.15;;
33148;SDS011;19506;51.040;3.856;2023-05-07T08:31:10;32.15;;;3.95;;
33148;SDS011;19506;51.040;3.856;2023-05-07T08:33:35;13.05;;;3.95;;
33148;SDS011;19506;51.040;3.856;2023-05-07T08:36:02;18.35;;;4.18;;
33148;SDS011;19506;51.040;3.856;2023-05-07T08:38:27;13.15;;;4.10;;
33148;SDS011;19506;51.040;3.856;2023-05-07T08:40:53;25.83;;;5.47;;
33148;SDS011;19506;51.040;3.856;2023-05-07T08:43:19;17.83;;;3.80;;
33148;SDS011;19506;51.040;3.856;2023-05-07T08:45:46;14.85;;;4.22;;
33148;SDS011;19506;51.040;3.856;2023-05-07T08:48:18;11.65;;;3.97;;
33148;SDS011;19506;51.040;3.856;2023-05-07T08:50:48;14.07;;;2.90;;
33148;SDS011;19506;51.040;3.856;2023-05-07T08:53:14;11.57;;;4.10;;
33148;SDS011;19506;51.040;3.856;2023-05-07T08:55:42;19.20;;;4.25;;
33148;SDS011;19506;51.040;3.856;2023-05-07T08:58:08;22.75;;;4.85;;
33148;SDS011;19506;51.040;3.856;2023-05-07T09:00:34;19.00;;;4.78;;
33148;SDS011;19506;51.040;3.856;2023-05-07T09:03:01;21.58;;;5.20;;
33148;SDS011;19506;51.040;3.856;2023-05-07T09:05:27;19.02;;;4.53;;
33148;SDS011;19506;51.040;3.856;2023-05-07T09:07:53;10.10;;;4.45;;
33148;SDS011;19506;51.040;3.856;2023-05-07T09:10:20;18.05;;;4.40;;
33148;SDS011;19506;51.040;3.856;2023-05-07T09:12:47;17.02;;;5.05;;
33148;SDS011;19506;51.040;3.856;2023-05-07T09:15:13;19.83;;;5.32;;
33148;SDS011;19506;51.040;3.856;2023-05-07T09:17:39;14.23;;;4.70;;
33148;SDS011;19506;51.040;3.856;2023-05-07T09:20:07;22.30;;;5.50;;
33148;SDS011;19506;51.040;3.856;2023-05-07T09:22:35;20.58;;;5.20;;
33148;SDS011;19506;51.040;3.856;2023-05-07T09:25:01;29.02;;;4.63;;
33148;SDS011;19506;51.040;3.856;2023-05-07T09:27:27;15.52;;;5.38;;
33148;SDS011;19506;51.040;3.856;2023-05-07T09:29:54;13.73;;;4.00;;
33148;SDS011;19506;51.040;3.856;2023-05-07T09:32:20;18.17;;;4.70;;
33148;SDS011;19506;51.040;3.856;2023-05-07T09:34:46;13.52;;;4.00;;
33148;SDS011;19506;51.040;3.856;2023-05-07T09:37:12;14.40;;;4.32;;
33148;SDS011;19506;51.040;3.856;2023-05-07T09:39:40;13.30;;;4.88;;
33148;SDS011;19506;51.040;3.856;2023-05-07T09:42:06;24.63;;;4.35;;
33148;SDS011;19506;51.040;3.856;2023-05-07T09:44:33;18.92;;;4.95;;
33148;SDS011;19506;51.040;3.856;2023-05-07T09:46:59;14.93;;;4.22;;
33148;SDS011;19506;51.040;3.856;2023-05-07T09:49:28;10.90;;;3.47;;
33148;SDS011;19506;51.040;3.856;2023-05-07T09:51:55;21.63;;;4.25;;
33148;SDS011;19506;51.040;3.856;2023-05-07T09:54:24;15.13;;;3.85;;
33148;SDS011;19506;51.040;3.856;2023-05-07T09:56:51;16.08;;;3.95;;
33148;SDS011;19506;51.040;3.856;2023-05-07T09:59:18;18.30;;;3.67;;
33148;SDS011;19506;51.040;3.856;2023-05-07T10:01:44;16.42;;;4.60;;
33148;SDS011;19506;51.040;3.856;2023-05-07T10:04:11;27.80;;;8.18;;
33148;SDS011;19506;51.040;3.856;2023-05-07T10:06:37;24.05;;;7.05;;
33148;SDS011;19506;51.040;3.856;2023-05-07T10:09:04;29.35;;;6.55;;
33148;SDS011;19506;51.040;3.856;2023-05-07T10:11:31;30.27;;;8.13;;
33148;SDS011;19506;51.040;3.856;2023-05-07T10:13:58;33.03;;;7.15;;
33148;SDS011;19506;51.040;3.856;2023-05-07T10:16:27;34.75;;;8.15;;
33148;SDS011;19506;51.040;3.856;2023-05-07T10:18:53;32.65;;;7.75;;
33148;SDS011;19506;51.040;3.856;2023-05-07T10:21:20;24.48;;;6.72;;
33148;SDS011;19506;51.040;3.856;2023-05-07T10:23:49;29.58;;;6.75;;
33148;SDS011;19506;51.040;3.856;2023-05-07T10:26:17;32.60;;;6.13;;
33148;SDS011;19506;51.040;3.856;2023-05-07T10:28:45;24.42;;;6.00;;
33148;SDS011;19506;51.040;3.856;2023-05-07T10:31:23;32.83;;;6.63;;
33148;SDS011;19506;51.040;3.856;2023-05-07T10:33:54;23.55;;;6.30;;
33148;SDS011;19506;51.040;3.856;2023-05-07T10:36:20;24.77;;;6.35;;
33148;SDS011;19506;51.040;3.856;2023-05-07T10:38:47;27.55;;;5.80;;
33148;SDS011;19506;51.040;3.856;2023-05-07T10:41:13;27.20;;;5.90;;
33148;SDS011;19506;51.040;3.856;2023-05-07T10:43:42;17.92;;;5.30;;
33148;SDS011;19506;51.040;3.856;2023-05-07T10:46:09;20.73;;;5.65;;
33148;SDS011;19506;51.040;3.856;2023-05-07T10:51:36;24.38;;;5.38;;
33148;SDS011;19506;51.040;3.856;2023-05-07T10:56:37;19.85;;;6.05;;
33148;SDS011;19506;51.040;3.856;2023-05-07T10:59:29;25.75;;;5.18;;
33148;SDS011;19506;51.040;3.856;2023-05-07T11:02:01;27.60;;;5.60;;
33148;SDS011;19506;51.040;3.856;2023-05-07T11:04:29;25.73;;;5.97;;
33148;SDS011;19506;51.040;3.856;2023-05-07T11:15:12;16.60;;;6.07;;
33148;SDS011;19506;51.040;3.856;2023-05-07T11:17:56;30.65;;;6.78;;
33148;SDS011;19506;51.040;3.856;2023-05-07T11:26:05;26.00;;;6.28;;
33148;SDS011;19506;51.040;3.856;2023-05-07T11:28:42;21.05;;;7.22;;
33148;SDS011;19506;51.040;3.856;2023-05-07T11:31:09;23.85;;;7.18;;
33148;SDS011;19506;51.040;3.856;2023-05-07T11:33:35;25.50;;;8.20;;
33148;SDS011;19506;51.040;3.856;2023-05-07T11:36:03;26.45;;;7.40;;
33148;SDS011;19506;51.040;3.856;2023-05-07T11:38:29;28.02;;;6.85;;
33148;SDS011;19506;51.040;3.856;2023-05-07T11:40:56;20.05;;;6.40;;
33148;SDS011;19506;51.040;3.856;2023-05-07T11:43:25;17.40;;;6.20;;
33148;SDS011;19506;51.040;3.856;2023-05-07T11:45:51;24.92;;;7.05;;
33148;SDS011;19506;51.040;3.856;2023-05-07T11:48:17;22.38;;;7.13;;
33148;SDS011;19506;51.040;3.856;2023-05-07T11:50:53;20.08;;;6.03;;
33148;SDS011;19506;51.040;3.856;2023-05-07T11:53:25;26.27;;;6.85;;
33148;SDS011;19506;51.040;3.856;2023-05-07T11:55:52;27.60;;;7.60;;
33148;SDS011;19506;51.040;3.856;2023-05-07T11:58:22;20.85;;;6.50;;
33148;SDS011;19506;51.040;3.856;2023-05-07T12:00:49;19.50;;;6.07;;
33148;SDS011;19506;51.040;3.856;2023-05-07T12:03:15;15.73;;;6.10;;
33148;SDS011;19506;51.040;3.856;2023-05-07T12:05:42;18.73;;;7.30;;
33148;SDS011;19506;51.040;3.856;2023-05-07T12:08:12;24.80;;;7.10;;
33148;SDS011;19506;51.040;3.856;2023-05-07T12:10:42;23.85;;;6.82;;
33148;SDS011;19506;51.040;3.856;2023-05-07T12:15:41;23.80;;;6.07;;
33148;SDS011;19506;51.040;3.856;2023-05-07T12:18:07;18.95;;;6.78;;
33148;SDS011;19506;51.040;3.856;2023-05-07T12:20:34;20.85;;;6.32;;
33148;SDS011;19506;51.040;3.856;2023-05-07T12:23:01;12.73;;;5.90;;
33148;SDS011;19506;51.040;3.856;2023-05-07T12:25:38;22.55;;;5.45;;
33148;SDS011;19506;51.040;3.856;2023-05-07T12:28:05;29.05;;;5.78;;
